Time;durP1;ratioP1;P1;durP2;ratioP2;P2;SDS_P1;SDS_P2;PMS_P1;PMS_P2;Temp;Humidity;BMP_temperature;BMP_pressure;BME280_temperature;BME280_humidity;BME280_pressure;Samples;Min_cycle;Max_cycle;Signal;HPM_P1;HPM_P2
2023/10/23 00:02:24;;;;;;;5.35;1.05;;;;;;;10.20;100.00;99279.13;5039451;28;20043;-92
2023/10/23 00:04:50;;;;;;;9.38;1.73;;;;;;;10.22;100.00;99274.50;5055361;28;20043;-90
2023/10/23 00:07:16;;;;;;;4.03;1.42;;;;;;;10.24;100.00;99280.41;5053516;28;20028;-92
2023/10/23 00:09:43;;;;;;;9.40;1.45;;;;;;;10.23;100.00;99272.66;5074891;28;20114;-92
2023/10/23 00:12:09;;;;;;;10.43;1.45;;;;;;;10.23;100.00;99268.22;5056211;28;20093;-92
2023/10/23 00:14:35;;;;;;;7.78;1.20;;;;;;;10.29;100.00;99274.63;5066869;28;20430;-91
2023/10/23 00:17:01;;;;;;;7.28;1.23;;;;;;;10.29;100.00;99278.09;5057174;28;20484;-91
2023/10/23 00:19:27;;;;;;;10.05;1.48;;;;;;;10.32;100.00;99262.91;5055477;28;20048;-89
2023/10/23 00:21:53;;;;;;;6.07;1.50;;;;;;;10.33;100.00;99267.19;5049653;28;20055;-92
2023/10/23 00:24:19;;;;;;;8.00;1.10;;;;;;;10.37;100.00;99268.47;5033733;28;20024;-93
2023/10/23 00:26:45;;;;;;;9.48;1.52;;;;;;;10.35;100.00;99265.19;5036286;28;20031;-90
2023/10/23 00:29:11;;;;;;;9.48;1.45;;;;;;;10.41;100.00;99261.88;5054400;28;20032;-91
2023/10/23 00:31:37;;;;;;;12.05;1.40;;;;;;;10.44;100.00;99261.53;5035806;28;20503;-92
2023/10/23 00:34:02;;;;;;;7.40;1.38;;;;;;;10.46;100.00;99262.22;5049910;28;20127;-92
2023/10/23 00:36:28;;;;;;;10.80;1.15;;;;;;;10.44;100.00;99253.59;5068088;28;20043;-91
2023/10/23 00:38:54;;;;;;;11.20;1.67;;;;;;;10.45;100.00;99252.59;5046011;28;20055;-92
2023/10/23 00:41:20;;;;;;;11.45;1.63;;;;;;;10.48;100.00;99243.56;5036841;28;20044;-91
2023/10/23 00:43:46;;;;;;;11.85;1.48;;;;;;;10.48;100.00;99239.06;5048881;28;20115;-92
2023/10/23 00:46:15;;;;;;;6.88;1.30;;;;;;;10.56;100.00;99242.69;5035423;28;20067;-92
2023/10/23 00:48:43;;;;;;;6.88;1.30;;;;;;;10.57;100.00;99242.50;5038847;28;20047;-92
2023/10/23 00:51:12;;;;;;;11.77;1.58;;;;;;;10.59;100.00;99240.50;5050391;28;20035;-93
2023/10/23 00:53:40;;;;;;;9.15;1.65;;;;;;;10.61;100.00;99235.84;5045384;28;20392;-91
2023/10/23 00:56:07;;;;;;;12.80;1.40;;;;;;;10.66;100.00;99243.25;5027845;28;20032;-93
2023/10/23 00:58:38;;;;;;;8.38;1.13;;;;;;;10.65;100.00;99231.06;5048983;28;20059;-91
2023/10/23 01:01:04;;;;;;;8.88;1.52;;;;;;;10.66;100.00;99241.44;5051442;28;20032;-92
2023/10/23 01:03:31;;;;;;;14.25;1.45;;;;;;;10.65;100.00;99239.78;5033663;28;20381;-92
2023/10/23 01:05:57;;;;;;;12.63;1.50;;;;;;;10.66;100.00;99238.81;5032864;28;20037;-91
2023/10/23 01:08:23;;;;;;;13.20;1.45;;;;;;;10.71;100.00;99230.34;5051641;28;20088;-92
2023/10/23 01:10:49;;;;;;;12.15;1.60;;;;;;;10.71;100.00;99237.44;5052082;28;20079;-93
2023/10/23 01:13:15;;;;;;;10.18;1.50;;;;;;;10.70;100.00;99227.88;5070561;28;20403;-92
2023/10/23 01:15:42;;;;;;;6.70;1.33;;;;;;;10.76;100.00;99246.50;5036782;28;20079;-92
2023/10/23 01:18:08;;;;;;;10.23;2.00;;;;;;;10.75;100.00;99238.75;5052986;28;20036;-91
2023/10/23 01:20:33;;;;;;;16.73;1.83;;;;;;;10.78;100.00;99227.84;5050877;28;20075;-91
2023/10/23 01:23:01;;;;;;;5.65;1.23;;;;;;;10.85;100.00;99235.88;5046550;28;20632;-91
2023/10/23 01:25:28;;;;;;;10.68;1.40;;;;;;;10.83;100.00;99229.94;5069106;28;20039;-89
2023/10/23 01:27:54;;;;;;;11.75;1.50;;;;;;;10.83;100.00;99224.66;5030910;28;20056;-91
2023/10/23 01:30:20;;;;;;;11.98;1.52;;;;;;;10.81;100.00;99224.84;5047878;28;20044;-91
2023/10/23 01:32:47;;;;;;;14.07;1.42;;;;;;;10.84;100.00;99227.13;5061131;28;20171;-89
2023/10/23 01:35:13;;;;;;;10.25;1.60;;;;;;;10.81;100.00;99224.84;5026282;28;20063;-91
2023/10/23 01:37:41;;;;;;;15.93;1.90;;;;;;;10.83;100.00;99211.44;5049263;28;20047;-91
2023/10/23 01:40:09;;;;;;;9.07;1.48;;;;;;;10.87;100.00;99221.50;5062766;28;20484;-89
2023/10/23 01:42:34;;;;;;;10.18;1.45;;;;;;;10.83;100.00;99216.75;5061573;28;20028;-90
2023/10/23 01:45:00;;;;;;;8.35;1.35;;;;;;;10.82;100.00;99212.44;5046362;28;20499;-91
2023/10/23 01:47:26;;;;;;;17.33;1.98;;;;;;;10.82;100.00;99218.56;5050216;28;20040;-89
2023/10/23 01:49:53;;;;;;;10.45;1.52;;;;;;;10.80;100.00;99209.97;5050470;28;20040;-89
2023/10/23 01:52:19;;;;;;;7.85;1.30;;;;;;;10.82;100.00;99215.91;5038555;28;20428;-92
2023/10/23 01:54:45;;;;;;;13.68;2.00;;;;;;;10.81;100.00;99205.50;5053759;28;20032;-92
2023/10/23 01:57:12;;;;;;;9.98;1.95;;;;;;;10.80;100.00;99215.25;5051519;28;20500;-91
2023/10/23 01:59:38;;;;;;;15.10;1.67;;;;;;;10.81;100.00;99210.78;5069847;28;20033;-91
2023/10/23 02:02:04;;;;;;;10.27;1.15;;;;;;;10.80;100.00;99212.59;5034973;28;20123;-89
2023/10/23 02:04:30;;;;;;;12.02;1.80;;;;;;;10.81;100.00;99205.50;5030099;28;20427;-90
2023/10/23 02:06:57;;;;;;;11.00;1.73;;;;;;;10.82;100.00;99205.34;5048772;28;20028;-91
2023/10/23 02:09:25;;;;;;;15.02;1.83;;;;;;;10.81;100.00;99202.88;5053369;28;20125;-90
2023/10/23 02:11:50;;;;;;;11.82;1.50;;;;;;;10.82;100.00;99201.84;5053431;28;20448;-92
2023/10/23 02:14:16;;;;;;;11.90;1.48;;;;;;;10.81;100.00;99201.06;5068442;28;20040;-92
2023/10/23 02:16:42;;;;;;;10.85;1.40;;;;;;;10.84;100.00;99194.59;5034951;28;20094;-91
2023/10/23 02:19:11;;;;;;;9.30;1.92;;;;;;;10.83;100.00;99193.75;5033006;28;20036;-89
2023/10/23 02:21:36;;;;;;;7.25;1.60;;;;;;;10.85;100.00;99189.13;5071005;28;20056;-92
2023/10/23 02:24:02;;;;;;;13.63;1.90;;;;;;;10.85;100.00;99193.56;5073180;28;20055;-91
2023/10/23 02:26:28;;;;;;;11.65;1.45;;;;;;;10.86;100.00;99187.31;5067602;28;20112;-92
2023/10/23 02:28:55;;;;;;;15.68;1.40;;;;;;;10.87;100.00;99191.59;5055551;28;20734;-90
2023/10/23 02:31:22;;;;;;;12.23;1.80;;;;;;;10.89;100.00;99193.03;5037357;28;20044;-91
2023/10/23 02:33:51;;;;;;;15.75;2.25;;;;;;;10.94;100.00;99195.16;5040740;28;20036;-91
2023/10/23 02:36:16;;;;;;;14.32;1.60;;;;;;;10.91;100.00;99190.22;5051115;28;20032;-92
2023/10/23 02:38:42;;;;;;;15.65;2.08;;;;;;;10.92;100.00;99192.69;5049164;28;20117;-92
2023/10/23 02:41:08;;;;;;;11.25;1.90;;;;;;;10.94;100.00;99189.06;5056178;28;20031;-90
2023/10/23 02:43:34;;;;;;;11.35;1.58;;;;;;;10.96;100.00;99192.34;5070513;28;20086;-90
2023/10/23 02:46:01;;;;;;;11.50;1.58;;;;;;;10.99;100.00;99184.88;5072326;28;20473;-89
2023/10/23 02:48:27;;;;;;;14.30;1.83;;;;;;;10.98;100.00;99183.25;5064473;28;20484;-89
2023/10/23 02:50:57;;;;;;;11.68;2.00;;;;;;;11.00;100.00;99178.59;5055926;28;20029;-90
2023/10/23 02:53:23;;;;;;;10.50;1.83;;;;;;;11.02;100.00;99189.00;5059548;28;20039;-87
2023/10/23 02:55:49;;;;;;;12.88;1.52;;;;;;;11.03;100.00;99182.69;5071776;28;20119;-90
2023/10/23 02:58:16;;;;;;;20.88;1.80;;;;;;;11.06;100.00;99187.63;5057889;28;20062;-91
2023/10/23 03:00:42;;;;;;;15.10;1.98;;;;;;;11.06;100.00;99171.75;5057832;28;20039;-92
2023/10/23 03:03:12;;;;;;;18.10;2.38;;;;;;;11.09;100.00;99175.88;5039972;28;20039;-92
2023/10/23 03:05:38;;;;;;;13.05;2.15;;;;;;;11.07;100.00;99177.88;5079455;28;20029;-92
2023/10/23 03:08:05;;;;;;;11.27;1.55;;;;;;;11.06;100.00;99174.41;5057468;28;20044;-91
2023/10/23 03:10:32;;;;;;;12.18;1.70;;;;;;;11.08;100.00;99171.59;5045409;28;20464;-89
2023/10/23 03:12:58;;;;;;;12.63;1.92;;;;;;;11.06;100.00;99169.13;5055497;28;20028;-89
2023/10/23 03:15:23;;;;;;;16.00;1.90;;;;;;;11.08;100.00;99163.66;5076082;28;20036;-92
2023/10/23 03:17:50;;;;;;;11.68;2.38;;;;;;;11.10;100.00;99162.47;5049874;28;20403;-88
2023/10/23 03:20:16;;;;;;;6.75;1.60;;;;;;;11.12;100.00;99164.94;5038451;28;20089;-90
2023/10/23 03:22:42;;;;;;;10.80;1.98;;;;;;;11.14;100.00;99162.94;5029841;28;20086;-89
2023/10/23 03:25:09;;;;;;;12.95;2.28;;;;;;;11.15;100.00;99157.47;5072688;28;20032;-90
2023/10/23 03:27:35;;;;;;;11.10;1.30;;;;;;;11.16;100.00;99163.59;5041643;28;20487;-88
2023/10/23 03:30:01;;;;;;;8.80;1.40;;;;;;;11.17;100.00;99159.94;5072806;28;20035;-92
2023/10/23 03:32:26;;;;;;;12.10;1.55;;;;;;;11.19;100.00;99162.38;5075492;28;20127;-91
2023/10/23 03:34:52;;;;;;;14.60;1.88;;;;;;;11.20;100.00;99150.78;5073387;28;20039;-92
2023/10/23 03:37:18;;;;;;;12.40;1.58;;;;;;;11.20;100.00;99154.28;5042423;28;20028;-88
2023/10/23 03:39:45;;;;;;;11.30;1.23;;;;;;;11.19;100.00;99150.00;5045342;28;20489;-91
2023/10/23 03:42:11;;;;;;;12.68;1.60;;;;;;;11.20;100.00;99148.97;5075585;28;20043;-92
2023/10/23 03:44:36;;;;;;;12.20;1.63;;;;;;;11.23;100.00;99156.56;5037402;28;20036;-92
2023/10/23 03:47:04;;;;;;;9.20;1.40;;;;;;;11.27;100.00;99146.44;5035025;28;20058;-91
2023/10/23 03:49:30;;;;;;;15.90;2.03;;;;;;;11.32;100.00;99145.91;5038998;28;20085;-92
2023/10/23 03:51:56;;;;;;;14.30;1.70;;;;;;;11.33;100.00;99144.88;5058762;28;20107;-92
2023/10/23 03:54:22;;;;;;;19.33;1.70;;;;;;;11.34;100.00;99128.84;5076976;28;20077;-91
2023/10/23 03:56:48;;;;;;;19.52;3.97;;;;;;;11.36;100.00;99142.72;5070402;28;20028;-92
2023/10/23 03:59:13;;;;;;;9.15;1.95;;;;;;;11.37;100.00;99136.41;5079529;28;20472;-91
2023/10/23 04:01:39;;;;;;;16.55;1.67;;;;;;;11.39;100.00;99136.22;5051099;28;20090;-89
2023/10/23 04:04:05;;;;;;;11.02;1.30;;;;;;;11.40;100.00;99137.88;5062308;28;20438;-91
2023/10/23 04:06:31;;;;;;;11.35;1.45;;;;;;;11.40;100.00;99138.69;5060240;28;20036;-91
2023/10/23 04:08:56;;;;;;;11.63;1.85;;;;;;;11.44;100.00;99138.31;5047272;28;20027;-88
2023/10/23 04:11:22;;;;;;;13.30;1.70;;;;;;;11.46;100.00;99133.69;5057405;28;20041;-91
2023/10/23 04:13:48;;;;;;;6.13;1.20;;;;;;;11.46;100.00;99134.50;5054740;28;20094;-91
2023/10/23 04:16:15;;;;;;;11.40;0.88;;;;;;;11.49;100.00;99139.44;5057925;28;20404;-92
2023/10/23 04:18:42;;;;;;;12.05;1.60;;;;;;;11.51;100.00;99142.72;5041908;28;20116;-91
2023/10/23 04:21:10;;;;;;;9.90;0.90;;;;;;;11.56;100.00;99139.53;5055451;28;20028;-93
2023/10/23 04:23:39;;;;;;;7.20;0.63;;;;;;;11.59;100.00;99141.81;5037575;28;20488;-92
2023/10/23 04:26:08;;;;;;;12.32;1.23;;;;;;;11.60;100.00;99137.31;5063699;28;20032;-89
2023/10/23 04:28:36;;;;;;;8.45;1.13;;;;;;;11.60;100.00;99140.78;5042499;28;20114;-90
2023/10/23 04:31:03;;;;;;;5.38;0.98;;;;;;;11.61;100.00;99141.63;5058388;28;20110;-93
2023/10/23 04:33:29;;;;;;;8.75;0.73;;;;;;;11.58;100.00;99139.34;5042405;28;20084;-91
2023/10/23 04:35:56;;;;;;;6.18;0.77;;;;;;;11.60;100.00;99139.97;5041901;28;20075;-91
2023/10/23 04:38:22;;;;;;;10.70;1.15;;;;;;;11.58;100.00;99128.75;5038954;28;20040;-92
2023/10/23 04:40:50;;;;;;;7.75;1.70;;;;;;;11.57;100.00;99132.38;5030515;28;20090;-90
2023/10/23 04:43:16;;;;;;;8.30;1.00;;;;;;;11.57;100.00;99127.09;5052699;28;20530;-92
2023/10/23 04:45:42;;;;;;;9.88;0.60;;;;;;;11.54;100.00;99120.34;5067192;28;20085;-91
2023/10/23 04:48:08;;;;;;;9.52;1.05;;;;;;;11.56;100.00;99128.13;5041414;28;20033;-90
2023/10/23 04:50:35;;;;;;;10.52;1.45;;;;;;;11.58;100.00;99120.81;5057708;28;20043;-92
2023/10/23 04:53:02;;;;;;;8.65;0.93;;;;;;;11.56;100.00;99120.19;5052445;28;20060;-92
2023/10/23 04:55:35;;;;;;;6.70;0.77;;;;;;;11.58;100.00;99121.63;5057238;28;20459;-92
2023/10/23 04:58:01;;;;;;;13.35;1.00;;;;;;;11.51;100.00;99121.56;5057727;28;20526;-89
2023/10/23 05:00:28;;;;;;;7.50;1.13;;;;;;;11.51;100.00;99116.28;5037605;28;20441;-90
2023/10/23 05:02:54;;;;;;;12.07;0.90;;;;;;;11.50;100.00;99119.06;5057140;28;20392;-89
2023/10/23 05:05:19;;;;;;;6.72;0.63;;;;;;;11.51;100.00;99121.56;5070257;28;20035;-91
2023/10/23 05:07:45;;;;;;;8.07;0.90;;;;;;;11.47;100.00;99114.97;5051969;28;20040;-92
2023/10/23 05:10:11;;;;;;;8.90;0.90;;;;;;;11.46;100.00;99121.28;5062682;28;20035;-92
2023/10/23 05:12:38;;;;;;;5.80;1.00;;;;;;;11.46;100.00;99123.09;5058805;28;20115;-90
2023/10/23 05:15:05;;;;;;;7.68;0.85;;;;;;;11.44;100.00;99119.81;5041786;28;20119;-89
2023/10/23 05:17:31;;;;;;;8.85;0.93;;;;;;;11.42;100.00;99109.41;5065006;28;20036;-90
2023/10/23 05:19:57;;;;;;;6.20;0.80;;;;;;;11.44;100.00;99106.56;5040311;28;20035;-90
2023/10/23 05:22:24;;;;;;;7.55;1.30;;;;;;;11.43;100.00;99105.78;5070727;28;20511;-89
2023/10/23 05:24:49;;;;;;;7.35;1.30;;;;;;;11.39;100.00;99109.75;5041294;28;20028;-89
2023/10/23 05:27:15;;;;;;;9.45;1.15;;;;;;;11.37;100.00;99102.00;5041426;28;20039;-90
2023/10/23 05:29:41;;;;;;;11.52;1.00;;;;;;;11.36;100.00;99102.19;5058321;28;20025;-90
2023/10/23 05:32:07;;;;;;;9.23;1.48;;;;;;;11.33;100.00;99102.56;5040511;28;20044;-90
2023/10/23 05:34:33;;;;;;;12.60;1.10;;;;;;;11.32;100.00;99098.28;5047365;28;20039;-93
2023/10/23 05:36:59;;;;;;;5.63;0.90;;;;;;;11.29;100.00;99094.19;5039373;28;20043;-92
2023/10/23 05:39:27;;;;;;;10.70;0.90;;;;;;;11.25;100.00;99096.38;5037569;28;20040;-89
2023/10/23 05:41:52;;;;;;;14.63;0.90;;;;;;;11.23;100.00;99100.19;5039291;28;20041;-88
2023/10/23 05:44:18;;;;;;;7.05;0.88;;;;;;;11.21;100.00;99094.28;5059612;28;20792;-89
2023/10/23 05:46:44;;;;;;;6.20;0.52;;;;;;;11.20;100.00;99098.72;5041958;28;20032;-92
2023/10/23 05:49:09;;;;;;;6.97;0.80;;;;;;;11.17;100.00;99099.09;5055880;28;20024;-88
2023/10/23 05:51:35;;;;;;;5.90;0.75;;;;;;;11.16;100.00;99094.81;5070400;28;20674;-89
2023/10/23 05:54:02;;;;;;;12.05;1.10;;;;;;;11.17;100.00;99104.38;5067155;28;20035;-88
2023/10/23 05:56:29;;;;;;;3.90;1.50;;;;;;;11.18;100.00;99090.16;5038434;28;20044;-89
2023/10/23 05:58:54;;;;;;;10.85;1.20;;;;;;;11.22;100.00;99114.41;5053103;28;20036;-92
2023/10/23 06:01:20;;;;;;;6.57;1.20;;;;;;;11.20;100.00;99125.19;5077838;28;20066;-91
2023/10/23 06:03:46;;;;;;;10.85;1.33;;;;;;;11.22;100.00;99119.72;5059382;28;20126;-88
2023/10/23 06:06:12;;;;;;;6.75;0.73;;;;;;;11.21;100.00;99118.06;5053403;28;20107;-89
2023/10/23 06:08:39;;;;;;;5.97;1.20;;;;;;;11.20;100.00;99108.47;5038275;28;20066;-89
2023/10/23 06:11:09;;;;;;;9.57;1.00;;;;;;;11.23;100.00;99114.25;5031739;28;20033;-89
2023/10/23 06:13:34;;;;;;;3.63;0.50;;;;;;;11.15;100.00;99115.16;5036361;28;20522;-91
2023/10/23 06:16:04;;;;;;;7.10;0.90;;;;;;;11.14;100.00;99116.16;5037608;28;20040;-90
2023/10/23 06:18:34;;;;;;;2.70;0.40;;;;;;;11.10;100.00;99103.47;5089078;28;20039;-90
2023/10/23 06:21:03;;;;;;;5.07;0.30;;;;;;;11.05;100.00;99101.38;5055580;28;20031;-92
2023/10/23 06:23:37;;;;;;;4.57;0.60;;;;;;;11.04;100.00;99095.25;5056312;28;20557;-92
2023/10/23 06:26:04;;;;;;;1.02;0.20;;;;;;;10.99;100.00;99100.25;5071202;28;20107;-92
2023/10/23 06:28:30;;;;;;;2.35;0.60;;;;;;;11.00;100.00;99093.16;5038381;28;20037;-92
2023/10/23 06:30:56;;;;;;;2.35;0.40;;;;;;;10.99;100.00;99094.97;5041680;28;20070;-92
2023/10/23 06:33:22;;;;;;;1.98;0.57;;;;;;;11.01;100.00;99094.78;5040502;28;20505;-92
2023/10/23 06:35:58;;;;;;;5.57;0.50;;;;;;;11.09;100.00;99102.66;5050729;28;20032;-90
2023/10/23 06:38:24;;;;;;;5.57;0.60;;;;;;;11.07;100.00;99109.13;5054576;28;20043;-91
2023/10/23 06:40:49;;;;;;;2.25;0.30;;;;;;;11.09;100.00;99109.75;5027992;28;20037;-92
2023/10/23 06:43:15;;;;;;;3.25;0.47;;;;;;;11.13;100.00;99111.84;5066123;28;20039;-92
2023/10/23 06:45:42;;;;;;;4.50;0.40;;;;;;;11.14;100.00;99104.75;5024387;28;20044;-92
2023/10/23 06:48:07;;;;;;;3.67;0.40;;;;;;;11.14;100.00;99118.81;5040186;28;20036;-92
2023/10/23 06:50:33;;;;;;;1.77;0.40;;;;;;;11.13;100.00;99119.78;5058079;28;20029;-82
2023/10/23 06:52:59;;;;;;;5.05;0.40;;;;;;;11.12;100.00;99106.75;5070117;28;20182;-92
2023/10/23 06:55:27;;;;;;;3.65;0.43;;;;;;;11.13;100.00;99108.41;5073397;28;20090;-91
2023/10/23 06:57:56;;;;;;;9.25;0.88;;;;;;;11.18;100.00;99116.59;5081816;28;20064;-92
2023/10/23 07:00:21;;;;;;;2.50;0.47;;;;;;;11.13;100.00;99114.50;5052814;28;20071;-92
2023/10/23 07:02:50;;;;;;;2.40;0.50;;;;;;;11.18;100.00;99111.31;5053375;28;20064;-91
2023/10/23 07:05:16;;;;;;;7.13;0.70;;;;;;;11.13;100.00;99111.06;5052996;28;20131;-92
2023/10/23 07:07:42;;;;;;;5.13;0.73;;;;;;;11.12;100.00;99109.38;5054014;28;20048;-91
2023/10/23 07:10:09;;;;;;;4.82;0.43;;;;;;;11.11;100.00;99113.88;5063014;28;20487;-91
2023/10/23 07:12:35;;;;;;;7.30;0.55;;;;;;;11.11;100.00;99098.00;5038742;28;20127;-92
2023/10/23 07:15:02;;;;;;;5.05;0.52;;;;;;;11.12;100.00;99107.56;5054645;28;20098;-90
2023/10/23 07:17:29;;;;;;;6.32;0.93;;;;;;;11.11;100.00;99111.25;5078558;28;20533;-91
2023/10/23 07:19:54;;;;;;;7.30;0.75;;;;;;;11.13;100.00;99114.50;5057164;28;20536;-92
2023/10/23 07:22:20;;;;;;;13.13;0.82;;;;;;;11.16;100.00;99108.03;5040587;28;20083;-92
2023/10/23 07:24:46;;;;;;;6.75;1.25;;;;;;;11.15;100.00;99111.66;5031914;28;20048;-92
2023/10/23 07:27:15;;;;;;;8.15;1.10;;;;;;;11.14;100.00;99107.41;5042841;28;20414;-92
2023/10/23 07:29:42;;;;;;;15.57;1.30;;;;;;;11.18;100.00;99113.16;5054241;28;20025;-92
2023/10/23 07:32:07;;;;;;;13.63;1.25;;;;;;;11.19;100.00;99112.13;5051434;28;20044;-92
2023/10/23 07:34:33;;;;;;;12.63;1.10;;;;;;;11.20;100.00;99113.78;5036366;28;20480;-92
2023/10/23 07:36:59;;;;;;;13.60;1.40;;;;;;;11.23;100.00;99118.69;5038254;28;20055;-92
2023/10/23 07:39:25;;;;;;;8.02;1.23;;;;;;;11.26;100.00;99107.78;5031443;28;20385;-93
2023/10/23 07:41:50;;;;;;;13.35;2.58;;;;;;;11.26;100.00;99100.66;5054775;28;20028;-92
2023/10/23 07:44:16;;;;;;;12.80;1.77;;;;;;;11.28;100.00;99108.41;5065532;28;20091;-91
2023/10/23 07:46:43;;;;;;;9.70;1.65;;;;;;;11.32;100.00;99106.22;5054656;28;20044;-91
2023/10/23 07:49:09;;;;;;;10.63;1.40;;;;;;;11.34;100.00;99114.81;5038339;28;20495;-92
2023/10/23 07:51:35;;;;;;;14.55;1.77;;;;;;;11.36;100.00;99107.50;5067703;28;20037;-91
2023/10/23 07:54:01;;;;;;;8.00;1.33;;;;;;;11.37;100.00;99109.16;5051879;28;20036;-92
2023/10/23 07:56:26;;;;;;;9.00;1.75;;;;;;;11.41;100.00;99102.47;5069991;28;20043;-91
2023/10/23 07:58:55;;;;;;;6.82;1.48;;;;;;;11.44;100.00;99104.75;5050500;28;20489;-91
2023/10/23 08:01:22;;;;;;;25.05;2.22;;;;;;;11.38;100.00;99110.78;5055099;28;20047;-89
2023/10/23 08:03:47;;;;;;;18.30;1.98;;;;;;;11.37;100.00;99133.75;5050280;28;20033;-91
2023/10/23 08:06:15;;;;;;;4.25;1.10;;;;;;;11.35;100.00;99138.44;5048594;28;20090;-92
2023/10/23 08:08:43;;;;;;;8.20;0.90;;;;;;;11.35;100.00;99127.03;5069797;28;20032;-91
2023/10/23 08:11:11;;;;;;;6.65;0.82;;;;;;;11.31;100.00;99117.81;5027415;28;20373;-92
2023/10/23 08:13:37;;;;;;;5.57;0.80;;;;;;;11.25;100.00;99114.06;5067204;28;20037;-92
2023/10/23 08:16:03;;;;;;;4.18;0.57;;;;;;;11.21;100.00;99096.91;5024327;28;20070;-91
2023/10/23 08:18:29;;;;;;;4.63;0.68;;;;;;;11.21;100.00;99102.22;5036840;28;20043;-92
2023/10/23 08:20:55;;;;;;;7.13;0.85;;;;;;;11.18;100.00;99111.31;5047483;28;20033;-93
2023/10/23 08:23:21;;;;;;;1.77;0.60;;;;;;;11.14;100.00;99102.94;5052258;28;20508;-91
2023/10/23 08:25:47;;;;;;;1.27;0.50;;;;;;;11.14;100.00;99105.59;5029692;28;20504;-93
2023/10/23 08:28:13;;;;;;;2.28;0.57;;;;;;;11.13;100.00;99103.13;5036653;28;20024;-92
2023/10/23 08:30:39;;;;;;;3.35;0.43;;;;;;;11.11;100.00;99095.38;5055099;28;20020;-91
2023/10/23 08:33:05;;;;;;;4.05;0.57;;;;;;;11.12;100.00;99102.28;5053556;28;20090;-92
2023/10/23 08:35:32;;;;;;;3.85;0.45;;;;;;;11.12;100.00;99093.53;5049781;28;20064;-91
2023/10/23 08:37:57;;;;;;;3.22;0.40;;;;;;;11.13;100.00;99087.25;5052889;28;20120;-89
2023/10/23 08:40:23;;;;;;;2.22;0.30;;;;;;;11.13;100.00;99087.25;5068164;28;20489;-91
2023/10/23 08:42:49;;;;;;;1.88;0.30;;;;;;;11.12;100.00;99078.50;5037625;28;20053;-91
2023/10/23 08:45:16;;;;;;;4.88;0.30;;;;;;;11.13;100.00;99077.47;5046856;28;20036;-91
2023/10/23 08:47:42;;;;;;;1.55;0.30;;;;;;;11.15;100.00;99074.66;5061531;28;20473;-91
2023/10/23 08:50:09;;;;;;;1.75;0.32;;;;;;;11.18;100.00;99065.56;5048780;28;20168;-90
2023/10/23 08:52:46;;;;;;;1.00;0.45;;;;;;;11.23;100.00;99066.63;5046730;28;20090;-90
2023/10/23 08:55:16;;;;;;;3.58;0.40;;;;;;;11.21;100.00;99063.34;5051328;28;20041;-92
2023/10/23 08:57:50;;;;;;;1.40;0.17;;;;;;;11.25;100.00;99059.34;5038040;28;20377;-91
2023/10/23 09:00:16;;;;;;;0.52;0.13;;;;;;;11.21;100.00;99065.97;5049980;28;20044;-91
2023/10/23 09:02:42;;;;;;;0.93;0.30;;;;;;;11.22;100.00;99050.94;5055789;28;20679;-91
2023/10/23 09:05:08;;;;;;;2.60;0.28;;;;;;;11.21;100.00;99060.69;5050788;28;21270;-92
2023/10/23 09:07:34;;;;;;;1.88;0.50;;;;;;;11.18;100.00;99061.06;5053596;28;20094;-92
2023/10/23 09:10:03;;;;;;;2.72;0.45;;;;;;;11.17;100.00;99048.84;5053807;28;20037;-91
2023/10/23 09:12:31;;;;;;;0.55;0.20;;;;;;;11.18;100.00;99058.41;5057979;28;20036;-90
2023/10/23 09:14:57;;;;;;;1.20;0.30;;;;;;;11.16;100.00;99058.59;5057689;28;20033;-91
2023/10/23 09:17:23;;;;;;;3.75;0.70;;;;;;;11.16;100.00;99052.50;5049630;28;20067;-90
2023/10/23 09:19:49;;;;;;;3.42;0.90;;;;;;;11.18;100.00;99076.13;5049917;28;20083;-92
2023/10/23 09:22:14;;;;;;;4.15;0.77;;;;;;;11.23;100.00;99071.91;5025420;28;20454;-92
2023/10/23 09:24:40;;;;;;;4.60;0.63;;;;;;;11.28;100.00;99069.56;5042888;28;20025;-92
2023/10/23 09:27:06;;;;;;;2.83;0.50;;;;;;;11.38;100.00;99064.00;5061334;28;20040;-90
2023/10/23 09:29:34;;;;;;;4.57;0.60;;;;;;;11.43;100.00;99066.09;5034278;28;20037;-92
2023/10/23 09:32:00;;;;;;;6.15;0.50;;;;;;;11.47;100.00;99067.34;5053368;28;20086;-93
2023/10/23 09:34:28;;;;;;;3.33;0.50;;;;;;;11.49;100.00;99057.41;5055045;28;20051;-92
2023/10/23 09:36:54;;;;;;;4.43;0.55;;;;;;;11.53;100.00;99057.88;5054885;28;20141;-93
2023/10/23 09:39:23;;;;;;;5.05;0.60;;;;;;;11.55;100.00;99053.19;5056206;28;20393;-92
2023/10/23 09:41:49;;;;;;;6.20;0.63;;;;;;;11.57;100.00;99059.13;5052698;28;20028;-93
2023/10/23 09:44:18;;;;;;;7.20;0.80;;;;;;;11.62;100.00;99063.88;5045987;28;20381;-90
2023/10/23 09:46:45;;;;;;;4.65;0.47;;;;;;;11.63;100.00;99065.50;5035836;28;20818;-90
2023/10/23 09:49:11;;;;;;;3.25;0.40;;;;;;;11.64;100.00;99060.00;5037503;28;20032;-90
2023/10/23 09:51:39;;;;;;;6.35;0.73;;;;;;;11.69;100.00;99053.34;5038349;28;20098;-90
2023/10/23 09:54:17;;;;;;;5.35;1.10;;;;;;;11.75;100.00;99053.41;5074437;28;20043;-92
2023/10/23 09:56:53;;;;;;;12.30;1.15;;;;;;;11.77;100.00;99061.16;5037766;28;20038;-93
2023/10/23 09:59:29;;;;;;;5.35;0.77;;;;;;;11.78;100.00;99062.81;5055225;28;20047;-92
2023/10/23 10:02:00;;;;;;;2.35;0.57;;;;;;;11.79;100.00;99057.34;5039046;28;20040;-92
2023/10/23 10:04:28;;;;;;;2.65;0.45;;;;;;;11.78;100.00;99066.28;5034421;28;20064;-92
2023/10/23 10:07:07;;;;;;;5.90;0.47;;;;;;;11.84;100.00;99056.78;5056083;28;20045;-90
2023/10/23 10:09:34;;;;;;;5.60;0.90;;;;;;;11.86;100.00;99054.78;5053747;28;20062;-91
2023/10/23 10:12:00;;;;;;;2.60;0.80;;;;;;;11.85;100.00;99061.06;5055422;28;20676;-92
2023/10/23 10:14:27;;;;;;;3.97;0.60;;;;;;;11.84;100.00;99054.13;5071241;28;20036;-91
2023/10/23 10:16:56;;;;;;;1.77;0.40;;;;;;;11.86;100.00;99051.31;5058595;28;20093;-92
2023/10/23 10:19:23;;;;;;;2.92;0.40;;;;;;;11.84;100.00;99050.66;5056061;28;20381;-91
2023/10/23 10:22:08;;;;;;;4.25;0.40;;;;;;;11.87;100.00;99048.47;5042198;28;20057;-91
2023/10/23 10:24:35;;;;;;;1.98;0.40;;;;;;;11.87;100.00;99051.13;5048380;28;20055;-91
2023/10/23 10:27:03;;;;;;;5.78;0.47;;;;;;;11.91;100.00;99043.63;5059881;28;20485;-91
2023/10/23 10:29:30;;;;;;;2.28;0.30;;;;;;;11.95;100.00;99044.03;5044072;28;20626;-91
2023/10/23 10:32:10;;;;;;;5.57;1.08;;;;;;;11.99;100.00;99046.13;5054344;28;20040;-90
2023/10/23 10:34:38;;;;;;;5.85;0.60;;;;;;;11.96;100.00;99038.56;5070464;28;20060;-91
2023/10/23 10:37:07;;;;;;;2.60;0.50;;;;;;;12.01;100.00;99040.66;5050388;28;20032;-91
2023/10/23 10:39:48;;;;;;;4.88;0.52;;;;;;;12.02;100.00;99024.56;5053978;28;20036;-91
2023/10/23 10:42:17;;;;;;;4.60;1.05;;;;;;;12.00;100.00;99018.66;5039626;28;20078;-92
2023/10/23 10:45:04;;;;;;;3.38;0.50;;;;;;;12.03;100.00;99041.28;5075739;28;20039;-92
2023/10/23 10:47:39;;;;;;;4.65;0.60;;;;;;;12.01;100.00;99033.53;5035040;28;20066;-91
2023/10/23 10:50:05;;;;;;;2.83;0.63;;;;;;;11.97;100.00;99024.34;5052203;28;20108;-93
2023/10/23 10:52:36;;;;;;;4.30;0.75;;;;;;;12.03;100.00;99017.44;5053841;28;20044;-92
2023/10/23 10:55:04;;;;;;;4.15;0.80;;;;;;;12.00;100.00;99012.53;5050894;28;20393;-93
2023/10/23 10:57:30;;;;;;;2.97;0.80;;;;;;;11.97;100.00;99012.91;5040124;28;20052;-93
2023/10/23 10:59:58;;;;;;;2.47;0.70;;;;;;;12.01;100.00;99012.34;5042417;28;20036;-94
2023/10/23 11:02:24;;;;;;;6.57;0.80;;;;;;;11.99;100.00;99013.56;5034592;28;20055;-93
2023/10/23 11:04:50;;;;;;;5.65;0.80;;;;;;;11.97;100.00;99010.25;5037756;28;20428;-94
2023/10/23 11:07:28;;;;;;;2.40;0.50;;;;;;;12.01;100.00;98998.28;5052421;28;21057;-94
2023/10/23 11:09:54;;;;;;;2.95;0.70;;;;;;;11.95;100.00;99002.50;5069434;28;20085;-93
2023/10/23 11:12:20;;;;;;;3.08;0.80;;;;;;;11.94;100.00;99000.88;5067295;28;20040;-91
2023/10/23 11:14:47;;;;;;;6.07;0.70;;;;;;;11.92;100.00;99002.88;5054847;28;20029;-91
2023/10/23 11:17:13;;;;;;;1.38;0.40;;;;;;;11.90;100.00;98999.59;5045672;28;20044;-93
2023/10/23 11:19:41;;;;;;;6.55;0.70;;;;;;;11.93;100.00;98995.78;5036346;28;20039;-90
2023/10/23 11:22:15;;;;;;;5.65;0.80;;;;;;;11.99;100.00;98995.81;5071624;28;20056;-93